メインページ
METAR-TAF:

METAR-TAF

空港 :

Harbor Springs Municipal Airport

Harbor Springs, ミシガン州, アメリカ合衆国

緯度: 45-25-32N, 経度: 084-54-48W, 海抜: 209m

現時点の気象観測

当レポートは13分前の17:56(UTC)に作成
南西の風 4kt
気温 23°C
湿度 73%
気圧 1016 hPa
視程: 16.1km
晴天

METAR: KMGN 261756Z AUTO 23004KT 10SM CLR 23/18 A3001 RMK AO2 T02400181

時間: 14:09 (18:09 UTC)


TAF: 見つかりません

4,000以上の空港の気象観測と天気予報(METAR報とTAF報)

利用可能な観測所は地図上に黄色い丸と赤い丸で示す。

丸の上にカーソルを重ねると観測所名を参照できる。

次にクリックすると気象観測と天気予報を参照できる。

マップの切り替え:黒色「×」印の緑ボタンをクリックして拡大、「-」印の緑ボタンをクリックして縮小、緑色の三角印をクリックして隣りの地図に切り替え


METAR-TAF: